METAR Data
IDs: Format: Raw Decoded Include TAF

Data at: 0014 UTC 25 Apr 2019

PAIK 242356Z AUTO 07004KT 10SM FEW026 BKN038 OVC075 02/M04 A3021 RMK AO2 SLP236 60000 T00171039 10017 21044 53007 FZRANO
PAIK 242256Z AUTO 10008KT 10SM OVC035 01/M05 A3021 RMK AO2 SLP234 T00061050 FZRANO
PAIK 242241Z AUTO 09008KT 10SM SCT029 OVC036 01/M05 A3020 RMK AO2 FZRANO
PAIK 242156Z AUTO 08009KT 10SM BKN020 OVC029 00/M04 A3019 RMK AO2 SLP229 T00001044 FZRANO
PAIK 242056Z AUTO 11007KT 10SM OVC020 M01/M06 A3019 RMK AO2 SLP228 60000 T10111056 53012 FZRANO
PAIK 241956Z AUTO 06004KT 10SM OVC022 M02/M07 A3018 RMK AO2 SNE08 SLP223 P0000 T10221067 FZRANO
PAIK 241856Z AUTO 00000KT 9SM -SN OVC024 M04/M07 A3016 RMK AO2 SNE03B32 SLP220 P0000 T10391072 FZRANO
PAIK 241807Z AUTO 09004KT 9SM BKN026 BKN032 OVC041 M04/M07 A3016 RMK AO2 SNE03 P0000 FZRANO
PAIK 241756Z AUTO 10003KT 9SM -SN SCT028 BKN034 OVC041 M04/M07 A3015 RMK AO2 SNE06B31 SLP217 P0000 60000 T10441072 11039 21050 51016 FZRANO
PAIK 241656Z AUTO 10004KT 9SM -SN OVC041 M04/M08 A3014 RMK AO2 SNB12E23B51 SLP212 P0000 T10441083 FZRANO
PAIK 241556Z AUTO 07003KT 9SM OVC041 M05/M08 A3012 RMK AO2 SNB30E54 SLP204 P0000 T10501083 FZRANO
PAIK 241517Z AUTO 08004KT 10SM SCT023 OVC041 M05/M09 A3011 RMK AO2 FZRANO
PAIK 241456Z AUTO 09004KT 10SM OVC023 M05/M09 A3011 RMK AO2 SNB26E38 SLP201 P0000 60000 T10501094 53017 FZRANO
PAIK 241445Z AUTO 08003KT 10SM BKN023 BKN048 OVC055 M04/M09 A3010 RMK AO2 SNB26E38 P0000 FZRANO
PAIK 241356Z AUTO 08003KT 10SM SCT055 OVC080 M05/M09 A3009 RMK AO2 SLP195 T10501094 FZRANO
PAIK 241256Z AUTO 09005KT 10SM OVC080 M05/M09 A3008 RMK AO2 SLP190 T10501094 FZRANO
PAIK 241156Z AUTO 09004KT 10SM BKN055 OVC070 M04/M09 A3006 RMK AO2 SLP184 T10391089 10000 21039 51019 FZRANO
PAIK 241056Z AUTO 10004KT 10SM OVC049 M03/M08 A3004 RMK AO2 SLP178 T10331083 FZRANO
PAIK 240956Z AUTO 09005KT 10SM FEW040 OVC049 M03/M08 A3002 RMK AO2 SLP171 T10331083 FZRANO
PAIK 240856Z AUTO 10006KT 10SM SCT042 OVC080 M03/M08 A3000 RMK AO2 SLP164 T10281078 400331072 53023 FZRANO
PAIK 240756Z AUTO 10006KT 10SM FEW055 OVC080 M02/M07 A2997 RMK AO2 SLP154 T10171072 FZRANO
PAIK 240656Z AUTO 09006KT 10SM OVC070 M01/M07 A2996 RMK AO2 SLP148 T10061072 FZRANO
PAIK 240556Z AUTO 10004KT 10SM OVC060 00/M07 A2993 RMK AO2 SLP140 T00001067 10033 20000 53017 FZRANO
PAIK 240456Z AUTO VRB05KT 10SM FEW045 OVC060 02/M07 A2991 RMK AO2 SLP134 T00171072 FZRANO
PAIK 240356Z AUTO 36007KT 10SM BKN055 OVC070 02/M07 A2989 RMK AO2 SLP127 T00171072 FZRANO
PAIK 240256Z AUTO 34007KT 10SM OVC070 02/M08 A2988 RMK AO2 SLP123 T00221078 53013 FZRANO
PAIK 240156Z AUTO 33010KT 10SM BKN070 03/M07 A2986 RMK AO2 SLP117 T00281072
PAIK 240056Z AUTO 34009KT 10SM CLR 03/M08 A2985 RMK AO2 SLP112 T00281078
PAIK 232356Z AUTO 33008KT 5SM HZ CLR 02/M08 A2984 RMK AO2 SLP110 T00221078 10022 21039 51014 FZRANO
PAIK 232256Z AUTO 36006KT 10SM CLR 02/M07 A2983 RMK AO2 SLP106 T00171072 FZRANO
PAIK 232156Z AUTO 35009KT 10SM CLR 01/M08 A2982 RMK AO2 SLP102 T00061078 FZRANO
PAIK 232056Z AUTO 34008KT 8SM CLR M01/M08 A2980 RMK AO2 SLP097 T10061078 53011 FZRANO
PAIK 231956Z AUTO 36009KT 10SM CLR M02/M08 A2979 RMK AO2 SLP093 T10171083 FZRANO
PAIK 231856Z AUTO 05007KT 10SM CLR M03/M09 A2977 RMK AO2 SLP087 T10281089 FZRANO
PAIK 231854Z AUTO 05006KT 10SM CLR M03/M09 A2977 RMK AO2 FZRANO
PAIK 231846Z AUTO 05006KT 2 1/2SM HZ CLR M03/M09 A2977 RMK AO2 FZRANO
PAIK 231756Z AUTO 05008KT 9SM CLR M04/M09 A2976 RMK AO2 SLP082 T10391094 11033 21072 53016 FZRANO
PAIK 231656Z AUTO 02008KT 10SM CLR M04/M11 A2974 RMK AO2 SLP075 T10441106 FZRANO
PAIK 231556Z AUTO 01009KT 10SM BKN070 M06/M11 A2972 RMK AO2 SLP070 T10561106 FZRANO
PAIK 231456Z AUTO 01008KT 10SM OVC065 M06/M11 A2971 RMK AO2 SLP065 T10561106 53017 FZRANO
PAIK 231356Z AUTO 02008KT 10SM OVC060 M06/M11 A2969 RMK AO2 SLP060 T10561111 FZRANO
PAIK 231256Z AUTO 35009KT 10SM CLR M06/M12 A2967 RMK AO2 SLP053 T10611117 FZRANO